sensor_id;sensor_type;location;lat;lon;timestamp;P1;durP1;ratioP1;P2;durP2;ratioP2
68647;SDS011;55632;51.962;16.116;2024-03-02T00:03:04;43.45;;;28.10;;
68647;SDS011;55632;51.962;16.116;2024-03-02T00:08:05;47.63;;;28.27;;
68647;SDS011;55632;51.962;16.116;2024-03-02T00:13:08;42.60;;;27.33;;
68647;SDS011;55632;51.962;16.116;2024-03-02T00:18:10;46.35;;;28.30;;
68647;SDS011;55632;51.962;16.116;2024-03-02T00:23:14;46.03;;;27.90;;
68647;SDS011;55632;51.962;16.116;2024-03-02T00:28:17;50.85;;;28.75;;
68647;SDS011;55632;51.962;16.116;2024-03-02T00:33:35;53.28;;;28.15;;
68647;SDS011;55632;51.962;16.116;2024-03-02T00:38:47;45.00;;;27.58;;
68647;SDS011;55632;51.962;16.116;2024-03-02T00:49:05;48.53;;;29.20;;
68647;SDS011;55632;51.962;16.116;2024-03-02T00:54:26;50.58;;;30.17;;
68647;SDS011;55632;51.962;16.116;2024-03-02T00:59:29;50.60;;;30.65;;
68647;SDS011;55632;51.962;16.116;2024-03-02T01:04:32;48.67;;;30.17;;
68647;SDS011;55632;51.962;16.116;2024-03-02T01:09:32;50.40;;;30.15;;
68647;SDS011;55632;51.962;16.116;2024-03-02T01:14:33;53.40;;;31.27;;
68647;SDS011;55632;51.962;16.116;2024-03-02T01:19:35;58.65;;;33.28;;
68647;SDS011;55632;51.962;16.116;2024-03-02T01:24:36;52.33;;;32.25;;
68647;SDS011;55632;51.962;16.116;2024-03-02T01:29:37;58.95;;;33.60;;
68647;SDS011;55632;51.962;16.116;2024-03-02T01:34:37;52.60;;;33.03;;
68647;SDS011;55632;51.962;16.116;2024-03-02T01:39:38;46.65;;;30.92;;
68647;SDS011;55632;51.962;16.116;2024-03-02T01:44:39;58.85;;;34.38;;
68647;SDS011;55632;51.962;16.116;2024-03-02T01:49:40;60.38;;;34.53;;
68647;SDS011;55632;51.962;16.116;2024-03-02T01:54:41;54.65;;;33.65;;
68647;SDS011;55632;51.962;16.116;2024-03-02T01:59:42;55.38;;;33.65;;
68647;SDS011;55632;51.962;16.116;2024-03-02T02:04:43;59.20;;;34.83;;
68647;SDS011;55632;51.962;16.116;2024-03-02T02:09:44;62.17;;;34.45;;
68647;SDS011;55632;51.962;16.116;2024-03-02T02:14:48;57.47;;;34.83;;
68647;SDS011;55632;51.962;16.116;2024-03-02T02:19:50;62.22;;;36.30;;
68647;SDS011;55632;51.962;16.116;2024-03-02T02:24:51;68.78;;;35.78;;
68647;SDS011;55632;51.962;16.116;2024-03-02T02:29:52;55.58;;;35.20;;
68647;SDS011;55632;51.962;16.116;2024-03-02T02:34:52;60.63;;;35.83;;
68647;SDS011;55632;51.962;16.116;2024-03-02T02:39:53;55.88;;;35.28;;
68647;SDS011;55632;51.962;16.116;2024-03-02T02:44:54;62.35;;;35.95;;
68647;SDS011;55632;51.962;16.116;2024-03-02T02:49:54;70.00;;;36.97;;
68647;SDS011;55632;51.962;16.116;2024-03-02T02:54:55;69.10;;;36.35;;
68647;SDS011;55632;51.962;16.116;2024-03-02T02:59:56;62.83;;;36.95;;
68647;SDS011;55632;51.962;16.116;2024-03-02T03:04:57;66.85;;;37.88;;
68647;SDS011;55632;51.962;16.116;2024-03-02T03:09:58;65.15;;;38.10;;
68647;SDS011;55632;51.962;16.116;2024-03-02T03:14:59;63.78;;;37.95;;
68647;SDS011;55632;51.962;16.116;2024-03-02T03:20:00;66.43;;;37.75;;
68647;SDS011;55632;51.962;16.116;2024-03-02T03:25:01;65.82;;;37.25;;
68647;SDS011;55632;51.962;16.116;2024-03-02T03:30:03;62.38;;;36.67;;
68647;SDS011;55632;51.962;16.116;2024-03-02T03:35:06;66.32;;;39.78;;
68647;SDS011;55632;51.962;16.116;2024-03-02T03:40:07;63.13;;;39.03;;
68647;SDS011;55632;51.962;16.116;2024-03-02T03:45:11;67.20;;;39.92;;
68647;SDS011;55632;51.962;16.116;2024-03-02T03:50:12;62.92;;;37.58;;
68647;SDS011;55632;51.962;16.116;2024-03-02T03:55:13;71.45;;;39.28;;
68647;SDS011;55632;51.962;16.116;2024-03-02T04:00:14;61.28;;;37.92;;
68647;SDS011;55632;51.962;16.116;2024-03-02T04:05:16;74.63;;;38.42;;
68647;SDS011;55632;51.962;16.116;2024-03-02T04:10:16;72.13;;;40.45;;
68647;SDS011;55632;51.962;16.116;2024-03-02T04:15:17;68.85;;;39.03;;
68647;SDS011;55632;51.962;16.116;2024-03-02T04:20:19;70.90;;;41.40;;
68647;SDS011;55632;51.962;16.116;2024-03-02T04:25:19;74.43;;;39.58;;
68647;SDS011;55632;51.962;16.116;2024-03-02T04:30:20;69.32;;;39.22;;
68647;SDS011;55632;51.962;16.116;2024-03-02T04:35:21;74.45;;;41.85;;
68647;SDS011;55632;51.962;16.116;2024-03-02T04:40:22;73.75;;;39.55;;
68647;SDS011;55632;51.962;16.116;2024-03-02T04:45:23;78.28;;;40.15;;
68647;SDS011;55632;51.962;16.116;2024-03-02T04:50:24;77.72;;;40.70;;
68647;SDS011;55632;51.962;16.116;2024-03-02T04:55:24;73.72;;;41.58;;
68647;SDS011;55632;51.962;16.116;2024-03-02T05:00:45;76.23;;;41.20;;
68647;SDS011;55632;51.962;16.116;2024-03-02T05:05:47;81.70;;;42.40;;
68647;SDS011;55632;51.962;16.116;2024-03-02T05:10:48;83.78;;;44.13;;
68647;SDS011;55632;51.962;16.116;2024-03-02T05:15:48;73.03;;;40.03;;
68647;SDS011;55632;51.962;16.116;2024-03-02T05:20:49;75.00;;;43.67;;
68647;SDS011;55632;51.962;16.116;2024-03-02T05:25:50;76.03;;;44.13;;
68647;SDS011;55632;51.962;16.116;2024-03-02T05:30:51;83.43;;;41.17;;
68647;SDS011;55632;51.962;16.116;2024-03-02T05:35:51;76.55;;;41.83;;
68647;SDS011;55632;51.962;16.116;2024-03-02T05:40:52;80.03;;;43.15;;
68647;SDS011;55632;51.962;16.116;2024-03-02T05:45:53;73.25;;;40.65;;
68647;SDS011;55632;51.962;16.116;2024-03-02T05:50:54;76.00;;;40.60;;
68647;SDS011;55632;51.962;16.116;2024-03-02T05:55:55;123.68;;;54.00;;
68647;SDS011;55632;51.962;16.116;2024-03-02T06:00:56;71.05;;;42.28;;
68647;SDS011;55632;51.962;16.116;2024-03-02T06:05:57;76.63;;;41.25;;
68647;SDS011;55632;51.962;16.116;2024-03-02T06:10:58;71.63;;;39.53;;
68647;SDS011;55632;51.962;16.116;2024-03-02T06:15:58;77.90;;;43.38;;
68647;SDS011;55632;51.962;16.116;2024-03-02T06:20:59;74.05;;;38.75;;
68647;SDS011;55632;51.962;16.116;2024-03-02T06:26:01;74.43;;;39.58;;
68647;SDS011;55632;51.962;16.116;2024-03-02T06:31:03;69.50;;;39.10;;
68647;SDS011;55632;51.962;16.116;2024-03-02T06:36:04;72.50;;;40.08;;
68647;SDS011;55632;51.962;16.116;2024-03-02T06:41:04;72.90;;;39.90;;
68647;SDS011;55632;51.962;16.116;2024-03-02T06:46:05;63.22;;;37.97;;
68647;SDS011;55632;51.962;16.116;2024-03-02T06:51:09;68.15;;;39.05;;
68647;SDS011;55632;51.962;16.116;2024-03-02T06:56:11;59.28;;;34.90;;
68647;SDS011;55632;51.962;16.116;2024-03-02T07:01:13;63.63;;;36.63;;
68647;SDS011;55632;51.962;16.116;2024-03-02T07:06:14;67.15;;;38.22;;
68647;SDS011;55632;51.962;16.116;2024-03-02T07:11:15;71.15;;;38.90;;
68647;SDS011;55632;51.962;16.116;2024-03-02T07:16:16;77.65;;;43.78;;
68647;SDS011;55632;51.962;16.116;2024-03-02T07:21:28;63.08;;;38.03;;
68647;SDS011;55632;51.962;16.116;2024-03-02T07:26:29;66.75;;;38.63;;
68647;SDS011;55632;51.962;16.116;2024-03-02T07:31:31;99.40;;;59.55;;
68647;SDS011;55632;51.962;16.116;2024-03-02T07:36:32;71.13;;;39.60;;
68647;SDS011;55632;51.962;16.116;2024-03-02T07:41:32;63.55;;;35.45;;
68647;SDS011;55632;51.962;16.116;2024-03-02T07:46:33;69.43;;;36.58;;
68647;SDS011;55632;51.962;16.116;2024-03-02T07:51:34;61.38;;;36.08;;
68647;SDS011;55632;51.962;16.116;2024-03-02T07:56:36;60.55;;;33.88;;
68647;SDS011;55632;51.962;16.116;2024-03-02T08:01:37;64.70;;;38.15;;
68647;SDS011;55632;51.962;16.116;2024-03-02T08:06:38;62.80;;;37.60;;
68647;SDS011;55632;51.962;16.116;2024-03-02T08:11:38;68.82;;;37.20;;
68647;SDS011;55632;51.962;16.116;2024-03-02T08:16:39;61.90;;;34.35;;
68647;SDS011;55632;51.962;16.116;2024-03-02T08:21:40;59.22;;;34.88;;
68647;SDS011;55632;51.962;16.116;2024-03-02T08:26:41;56.88;;;32.85;;
68647;SDS011;55632;51.962;16.116;2024-03-02T08:31:42;56.20;;;33.17;;
68647;SDS011;55632;51.962;16.116;2024-03-02T08:36:43;55.92;;;31.50;;
68647;SDS011;55632;51.962;16.116;2024-03-02T08:41:44;50.13;;;31.17;;
68647;SDS011;55632;51.962;16.116;2024-03-02T08:46:45;51.42;;;30.08;;
68647;SDS011;55632;51.962;16.116;2024-03-02T08:51:46;53.42;;;33.33;;
68647;SDS011;55632;51.962;16.116;2024-03-02T08:56:54;51.35;;;29.77;;
68647;SDS011;55632;51.962;16.116;2024-03-02T09:01:55;53.55;;;30.98;;
68647;SDS011;55632;51.962;16.116;2024-03-02T09:06:56;50.30;;;30.75;;
68647;SDS011;55632;51.962;16.116;2024-03-02T09:11:56;50.35;;;30.30;;
68647;SDS011;55632;51.962;16.116;2024-03-02T09:16:58;44.72;;;26.98;;
68647;SDS011;55632;51.962;16.116;2024-03-02T09:21:59;56.08;;;31.30;;
68647;SDS011;55632;51.962;16.116;2024-03-02T09:26:59;45.38;;;28.75;;
68647;SDS011;55632;51.962;16.116;2024-03-02T09:32:00;52.33;;;30.80;;
68647;SDS011;55632;51.962;16.116;2024-03-02T09:37:01;50.33;;;30.33;;
68647;SDS011;55632;51.962;16.116;2024-03-02T09:42:04;47.00;;;27.90;;
68647;SDS011;55632;51.962;16.116;2024-03-02T09:47:06;39.28;;;26.10;;
68647;SDS011;55632;51.962;16.116;2024-03-02T09:52:07;45.03;;;27.98;;
68647;SDS011;55632;51.962;16.116;2024-03-02T09:57:09;47.10;;;28.55;;
68647;SDS011;55632;51.962;16.116;2024-03-02T10:02:10;39.88;;;25.33;;
68647;SDS011;55632;51.962;16.116;2024-03-02T10:07:14;34.60;;;22.90;;
68647;SDS011;55632;51.962;16.116;2024-03-02T10:12:16;35.22;;;23.50;;
68647;SDS011;55632;51.962;16.116;2024-03-02T10:17:18;41.88;;;24.67;;
68647;SDS011;55632;51.962;16.116;2024-03-02T10:22:18;32.92;;;21.75;;
68647;SDS011;55632;51.962;16.116;2024-03-02T10:27:25;30.80;;;21.50;;
68647;SDS011;55632;51.962;16.116;2024-03-02T10:32:27;41.95;;;21.52;;
68647;SDS011;55632;51.962;16.116;2024-03-02T10:37:29;32.20;;;21.80;;
68647;SDS011;55632;51.962;16.116;2024-03-02T10:42:30;32.30;;;18.95;;
68647;SDS011;55632;51.962;16.116;2024-03-02T10:47:31;30.27;;;19.98;;
68647;SDS011;55632;51.962;16.116;2024-03-02T10:52:39;27.13;;;19.45;;
68647;SDS011;55632;51.962;16.116;2024-03-02T11:02:56;28.17;;;18.17;;
68647;SDS011;55632;51.962;16.116;2024-03-02T11:08:18;27.25;;;19.38;;
68647;SDS011;55632;51.962;16.116;2024-03-02T11:13:32;40.45;;;20.65;;
68647;SDS011;55632;51.962;16.116;2024-03-02T11:18:34;39.45;;;21.27;;
68647;SDS011;55632;51.962;16.116;2024-03-02T11:23:35;31.70;;;19.60;;
68647;SDS011;55632;51.962;16.116;2024-03-02T11:28:36;34.70;;;18.75;;
68647;SDS011;55632;51.962;16.116;2024-03-02T11:33:37;64.00;;;29.52;;
68647;SDS011;55632;51.962;16.116;2024-03-02T11:38:38;38.10;;;21.90;;
68647;SDS011;55632;51.962;16.116;2024-03-02T11:43:39;32.10;;;19.73;;
68647;SDS011;55632;51.962;16.116;2024-03-02T11:48:40;37.20;;;20.45;;
68647;SDS011;55632;51.962;16.116;2024-03-02T11:53:41;31.52;;;21.02;;
68647;SDS011;55632;51.962;16.116;2024-03-02T11:58:43;33.17;;;20.02;;
68647;SDS011;55632;51.962;16.116;2024-03-02T12:03:44;31.38;;;19.63;;
68647;SDS011;55632;51.962;16.116;2024-03-02T12:08:46;32.08;;;19.73;;
68647;SDS011;55632;51.962;16.116;2024-03-02T12:13:53;27.20;;;18.63;;
68647;SDS011;55632;51.962;16.116;2024-03-02T12:23:58;29.42;;;19.77;;
68647;SDS011;55632;51.962;16.116;2024-03-02T12:28:59;29.23;;;18.00;;
68647;SDS011;55632;51.962;16.116;2024-03-02T12:34:00;27.17;;;18.42;;
68647;SDS011;55632;51.962;16.116;2024-03-02T12:39:02;30.38;;;19.13;;
68647;SDS011;55632;51.962;16.116;2024-03-02T12:44:03;25.45;;;17.17;;
68647;SDS011;55632;51.962;16.116;2024-03-02T12:49:07;24.73;;;16.50;;
68647;SDS011;55632;51.962;16.116;2024-03-02T12:54:10;29.50;;;18.10;;
68647;SDS011;55632;51.962;16.116;2024-03-02T12:59:21;31.98;;;19.95;;
68647;SDS011;55632;51.962;16.116;2024-03-02T13:04:27;25.92;;;18.20;;
68647;SDS011;55632;51.962;16.116;2024-03-02T13:09:29;31.50;;;19.15;;
68647;SDS011;55632;51.962;16.116;2024-03-02T13:14:32;27.38;;;16.15;;
68647;SDS011;55632;51.962;16.116;2024-03-02T13:19:34;24.63;;;17.02;;
68647;SDS011;55632;51.962;16.116;2024-03-02T13:24:34;29.80;;;18.17;;
68647;SDS011;55632;51.962;16.116;2024-03-02T13:29:35;25.80;;;17.13;;
68647;SDS011;55632;51.962;16.116;2024-03-02T13:34:36;29.90;;;18.58;;
68647;SDS011;55632;51.962;16.116;2024-03-02T13:39:39;29.38;;;17.88;;
68647;SDS011;55632;51.962;16.116;2024-03-02T13:44:44;87.03;;;37.33;;
68647;SDS011;55632;51.962;16.116;2024-03-02T13:49:50;27.45;;;18.15;;
68647;SDS011;55632;51.962;16.116;2024-03-02T13:54:51;34.88;;;21.08;;
68647;SDS011;55632;51.962;16.116;2024-03-02T13:59:52;25.02;;;16.45;;
68647;SDS011;55632;51.962;16.116;2024-03-02T14:04:53;33.85;;;22.17;;
68647;SDS011;55632;51.962;16.116;2024-03-02T14:09:54;32.15;;;20.55;;
68647;SDS011;55632;51.962;16.116;2024-03-02T14:14:55;28.70;;;18.35;;
68647;SDS011;55632;51.962;16.116;2024-03-02T14:19:58;42.53;;;25.35;;
68647;SDS011;55632;51.962;16.116;2024-03-02T14:24:59;42.05;;;21.38;;
68647;SDS011;55632;51.962;16.116;2024-03-02T14:30:00;38.88;;;20.60;;
68647;SDS011;55632;51.962;16.116;2024-03-02T14:35:01;47.58;;;29.08;;
68647;SDS011;55632;51.962;16.116;2024-03-02T14:40:02;34.88;;;22.70;;
68647;SDS011;55632;51.962;16.116;2024-03-02T14:45:06;42.53;;;22.38;;
68647;SDS011;55632;51.962;16.116;2024-03-02T14:50:07;38.13;;;21.00;;
68647;SDS011;55632;51.962;16.116;2024-03-02T14:55:10;37.80;;;24.42;;
68647;SDS011;55632;51.962;16.116;2024-03-02T15:00:11;29.92;;;19.75;;
68647;SDS011;55632;51.962;16.116;2024-03-02T15:05:12;30.02;;;18.88;;
68647;SDS011;55632;51.962;16.116;2024-03-02T15:10:12;30.50;;;18.00;;
68647;SDS011;55632;51.962;16.116;2024-03-02T15:15:14;34.45;;;18.95;;
68647;SDS011;55632;51.962;16.116;2024-03-02T15:20:15;29.60;;;18.95;;
68647;SDS011;55632;51.962;16.116;2024-03-02T15:25:15;32.00;;;20.05;;
68647;SDS011;55632;51.962;16.116;2024-03-02T15:30:16;30.10;;;19.35;;
68647;SDS011;55632;51.962;16.116;2024-03-02T15:35:17;29.92;;;18.42;;
68647;SDS011;55632;51.962;16.116;2024-03-02T15:40:18;48.17;;;27.98;;
68647;SDS011;55632;51.962;16.116;2024-03-02T15:45:19;149.65;;;64.03;;
68647;SDS011;55632;51.962;16.116;2024-03-02T15:50:19;34.08;;;21.55;;
68647;SDS011;55632;51.962;16.116;2024-03-02T15:55:20;77.97;;;46.88;;
68647;SDS011;55632;51.962;16.116;2024-03-02T16:00:21;69.47;;;32.53;;
68647;SDS011;55632;51.962;16.116;2024-03-02T16:05:23;50.00;;;27.27;;
68647;SDS011;55632;51.962;16.116;2024-03-02T16:10:24;152.75;;;120.35;;
68647;SDS011;55632;51.962;16.116;2024-03-02T16:15:26;51.20;;;30.67;;
68647;SDS011;55632;51.962;16.116;2024-03-02T16:20:28;48.88;;;24.42;;
68647;SDS011;55632;51.962;16.116;2024-03-02T16:25:29;50.13;;;26.55;;
68647;SDS011;55632;51.962;16.116;2024-03-02T16:30:31;67.63;;;32.78;;
68647;SDS011;55632;51.962;16.116;2024-03-02T16:35:31;53.80;;;28.35;;
68647;SDS011;55632;51.962;16.116;2024-03-02T16:40:32;53.40;;;27.23;;
68647;SDS011;55632;51.962;16.116;2024-03-02T16:45:33;50.30;;;28.70;;
68647;SDS011;55632;51.962;16.116;2024-03-02T16:50:34;56.28;;;28.83;;
68647;SDS011;55632;51.962;16.116;2024-03-02T16:55:35;59.63;;;30.67;;
68647;SDS011;55632;51.962;16.116;2024-03-02T17:00:36;57.20;;;30.45;;
68647;SDS011;55632;51.962;16.116;2024-03-02T17:05:38;85.18;;;43.17;;
68647;SDS011;55632;51.962;16.116;2024-03-02T17:10:38;69.10;;;38.58;;
68647;SDS011;55632;51.962;16.116;2024-03-02T17:15:40;71.63;;;35.55;;
68647;SDS011;55632;51.962;16.116;2024-03-02T17:20:41;68.70;;;32.63;;
68647;SDS011;55632;51.962;16.116;2024-03-02T17:25:42;60.58;;;33.15;;
68647;SDS011;55632;51.962;16.116;2024-03-02T17:30:43;51.53;;;29.98;;
68647;SDS011;55632;51.962;16.116;2024-03-02T17:35:43;61.50;;;35.17;;
68647;SDS011;55632;51.962;16.116;2024-03-02T17:40:47;68.25;;;36.63;;
68647;SDS011;55632;51.962;16.116;2024-03-02T17:45:48;84.30;;;44.95;;
68647;SDS011;55632;51.962;16.116;2024-03-02T17:50:49;70.20;;;36.22;;
68647;SDS011;55632;51.962;16.116;2024-03-02T17:55:50;89.35;;;46.97;;
68647;SDS011;55632;51.962;16.116;2024-03-02T18:00:51;125.18;;;62.50;;
68647;SDS011;55632;51.962;16.116;2024-03-02T18:05:52;104.55;;;49.30;;
68647;SDS011;55632;51.962;16.116;2024-03-02T18:10:53;126.22;;;62.85;;
68647;SDS011;55632;51.962;16.116;2024-03-02T18:15:57;123.13;;;72.50;;
68647;SDS011;55632;51.962;16.116;2024-03-02T18:20:58;83.85;;;41.83;;
68647;SDS011;55632;51.962;16.116;2024-03-02T18:25:58;181.38;;;79.20;;
68647;SDS011;55632;51.962;16.116;2024-03-02T18:31:00;187.80;;;82.28;;
68647;SDS011;55632;51.962;16.116;2024-03-02T18:36:01;98.10;;;49.75;;
68647;SDS011;55632;51.962;16.116;2024-03-02T18:41:07;83.88;;;38.50;;
68647;SDS011;55632;51.962;16.116;2024-03-02T18:46:27;106.63;;;45.78;;
68647;SDS011;55632;51.962;16.116;2024-03-02T18:51:28;86.65;;;40.03;;
68647;SDS011;55632;51.962;16.116;2024-03-02T18:56:29;79.43;;;38.40;;
68647;SDS011;55632;51.962;16.116;2024-03-02T19:01:30;82.70;;;38.63;;
68647;SDS011;55632;51.962;16.116;2024-03-02T19:06:30;63.00;;;33.35;;
68647;SDS011;55632;51.962;16.116;2024-03-02T19:11:31;58.47;;;29.42;;
68647;SDS011;55632;51.962;16.116;2024-03-02T19:16:32;69.22;;;32.45;;
68647;SDS011;55632;51.962;16.116;2024-03-02T19:21:33;58.60;;;31.95;;
68647;SDS011;55632;51.962;16.116;2024-03-02T19:26:34;58.90;;;31.63;;
68647;SDS011;55632;51.962;16.116;2024-03-02T19:31:35;78.57;;;49.63;;
68647;SDS011;55632;51.962;16.116;2024-03-02T19:36:36;44.15;;;27.08;;
68647;SDS011;55632;51.962;16.116;2024-03-02T19:41:37;47.78;;;26.85;;
68647;SDS011;55632;51.962;16.116;2024-03-02T19:46:38;40.60;;;25.10;;
68647;SDS011;55632;51.962;16.116;2024-03-02T19:51:39;40.90;;;23.58;;
68647;SDS011;55632;51.962;16.116;2024-03-02T19:56:39;37.90;;;22.55;;
68647;SDS011;55632;51.962;16.116;2024-03-02T20:01:40;35.22;;;21.08;;
68647;SDS011;55632;51.962;16.116;2024-03-02T20:06:41;38.30;;;22.50;;
68647;SDS011;55632;51.962;16.116;2024-03-02T20:11:42;48.78;;;30.63;;
68647;SDS011;55632;51.962;16.116;2024-03-02T20:16:43;55.03;;;28.65;;
68647;SDS011;55632;51.962;16.116;2024-03-02T20:21:45;36.15;;;21.73;;
68647;SDS011;55632;51.962;16.116;2024-03-02T20:26:46;43.97;;;25.48;;
68647;SDS011;55632;51.962;16.116;2024-03-02T20:31:47;48.33;;;26.42;;
68647;SDS011;55632;51.962;16.116;2024-03-02T20:36:48;56.35;;;31.02;;
68647;SDS011;55632;51.962;16.116;2024-03-02T20:41:49;40.95;;;24.73;;
68647;SDS011;55632;51.962;16.116;2024-03-02T20:46:52;124.75;;;65.72;;
68647;SDS011;55632;51.962;16.116;2024-03-02T20:51:54;56.00;;;33.55;;
68647;SDS011;55632;51.962;16.116;2024-03-02T20:56:54;47.42;;;27.00;;
68647;SDS011;55632;51.962;16.116;2024-03-02T21:01:57;47.83;;;28.42;;
68647;SDS011;55632;51.962;16.116;2024-03-02T21:06:58;39.13;;;24.08;;
68647;SDS011;55632;51.962;16.116;2024-03-02T21:12:00;40.05;;;22.95;;
68647;SDS011;55632;51.962;16.116;2024-03-02T21:17:02;33.22;;;20.67;;
68647;SDS011;55632;51.962;16.116;2024-03-02T21:22:03;37.67;;;20.15;;
68647;SDS011;55632;51.962;16.116;2024-03-02T21:27:06;31.23;;;19.60;;
68647;SDS011;55632;51.962;16.116;2024-03-02T21:32:08;35.88;;;20.45;;
68647;SDS011;55632;51.962;16.116;2024-03-02T21:37:10;29.52;;;18.77;;
68647;SDS011;55632;51.962;16.116;2024-03-02T21:42:11;32.40;;;19.05;;
68647;SDS011;55632;51.962;16.116;2024-03-02T21:47:12;38.25;;;19.92;;
68647;SDS011;55632;51.962;16.116;2024-03-02T21:52:15;34.30;;;20.15;;
68647;SDS011;55632;51.962;16.116;2024-03-02T21:57:16;35.08;;;19.77;;
68647;SDS011;55632;51.962;16.116;2024-03-02T22:02:20;34.58;;;19.40;;
68647;SDS011;55632;51.962;16.116;2024-03-02T22:07:20;33.88;;;19.95;;
68647;SDS011;55632;51.962;16.116;2024-03-02T22:12:21;40.95;;;21.80;;
68647;SDS011;55632;51.962;16.116;2024-03-02T22:17:22;33.63;;;21.20;;
68647;SDS011;55632;51.962;16.116;2024-03-02T22:22:23;36.75;;;21.33;;
68647;SDS011;55632;51.962;16.116;2024-03-02T22:27:24;38.72;;;21.48;;
68647;SDS011;55632;51.962;16.116;2024-03-02T22:32:25;39.63;;;23.02;;
68647;SDS011;55632;51.962;16.116;2024-03-02T22:37:26;36.78;;;22.95;;
68647;SDS011;55632;51.962;16.116;2024-03-02T22:42:26;40.78;;;23.35;;
68647;SDS011;55632;51.962;16.116;2024-03-02T22:47:28;47.22;;;24.77;;
68647;SDS011;55632;51.962;16.116;2024-03-02T22:52:29;44.30;;;25.08;;
68647;SDS011;55632;51.962;16.116;2024-03-02T22:57:30;40.35;;;23.98;;
68647;SDS011;55632;51.962;16.116;2024-03-02T23:02:31;40.45;;;23.92;;
68647;SDS011;55632;51.962;16.116;2024-03-02T23:07:32;39.45;;;23.63;;
68647;SDS011;55632;51.962;16.116;2024-03-02T23:12:33;38.50;;;23.73;;
68647;SDS011;55632;51.962;16.116;2024-03-02T23:17:34;43.85;;;25.30;;
68647;SDS011;55632;51.962;16.116;2024-03-02T23:22:34;43.58;;;23.05;;
68647;SDS011;55632;51.962;16.116;2024-03-02T23:27:35;40.78;;;23.30;;
68647;SDS011;55632;51.962;16.116;2024-03-02T23:32:36;38.55;;;22.23;;
68647;SDS011;55632;51.962;16.116;2024-03-02T23:37:43;33.97;;;20.73;;
68647;SDS011;55632;51.962;16.116;2024-03-02T23:42:44;35.75;;;21.08;;
68647;SDS011;55632;51.962;16.116;2024-03-02T23:47:45;35.65;;;19.90;;
68647;SDS011;55632;51.962;16.116;2024-03-02T23:52:45;33.90;;;19.58;;
68647;SDS011;55632;51.962;16.116;2024-03-02T23:57:46;30.83;;;18.88;;
